sensor_id;sensor_type;location;lat;lon;timestamp;P1;durP1;ratioP1;P2;durP2;ratioP2
50393;SDS011;36308;46.312;25.288;2023-09-07T00:01:17;8.48;;;3.85;;
50393;SDS011;36308;46.312;25.288;2023-09-07T00:03:43;5.43;;;3.40;;
50393;SDS011;36308;46.312;25.288;2023-09-07T00:06:09;7.32;;;3.88;;
50393;SDS011;36308;46.312;25.288;2023-09-07T00:08:34;6.82;;;3.75;;
50393;SDS011;36308;46.312;25.288;2023-09-07T00:11:06;6.25;;;3.53;;
50393;SDS011;36308;46.312;25.288;2023-09-07T00:13:32;6.53;;;3.58;;
50393;SDS011;36308;46.312;25.288;2023-09-07T00:16:02;5.88;;;3.78;;
50393;SDS011;36308;46.312;25.288;2023-09-07T00:18:29;8.85;;;3.95;;
50393;SDS011;36308;46.312;25.288;2023-09-07T00:20:55;5.80;;;3.47;;
50393;SDS011;36308;46.312;25.288;2023-09-07T00:23:20;7.88;;;3.50;;
50393;SDS011;36308;46.312;25.288;2023-09-07T00:25:46;5.03;;;3.20;;
50393;SDS011;36308;46.312;25.288;2023-09-07T00:28:12;5.00;;;3.25;;
50393;SDS011;36308;46.312;25.288;2023-09-07T00:30:37;6.13;;;3.60;;
50393;SDS011;36308;46.312;25.288;2023-09-07T00:33:04;5.22;;;3.20;;
50393;SDS011;36308;46.312;25.288;2023-09-07T00:35:29;6.38;;;3.72;;
50393;SDS011;36308;46.312;25.288;2023-09-07T00:37:55;5.90;;;3.60;;
50393;SDS011;36308;46.312;25.288;2023-09-07T00:40:21;6.60;;;3.50;;
50393;SDS011;36308;46.312;25.288;2023-09-07T00:42:47;5.45;;;3.38;;
50393;SDS011;36308;46.312;25.288;2023-09-07T00:45:12;6.65;;;3.80;;
50393;SDS011;36308;46.312;25.288;2023-09-07T00:47:38;5.13;;;3.53;;
50393;SDS011;36308;46.312;25.288;2023-09-07T00:50:04;5.60;;;3.63;;
50393;SDS011;36308;46.312;25.288;2023-09-07T00:52:31;6.25;;;3.25;;
50393;SDS011;36308;46.312;25.288;2023-09-07T00:54:57;5.28;;;3.38;;
50393;SDS011;36308;46.312;25.288;2023-09-07T00:57:24;6.55;;;3.38;;
50393;SDS011;36308;46.312;25.288;2023-09-07T00:59:49;6.25;;;3.63;;
50393;SDS011;36308;46.312;25.288;2023-09-07T01:02:15;6.60;;;4.07;;
50393;SDS011;36308;46.312;25.288;2023-09-07T01:04:41;6.93;;;3.40;;
50393;SDS011;36308;46.312;25.288;2023-09-07T01:07:26;5.40;;;3.63;;
50393;SDS011;36308;46.312;25.288;2023-09-07T01:09:59;5.30;;;3.25;;
50393;SDS011;36308;46.312;25.288;2023-09-07T01:12:27;5.57;;;3.63;;
50393;SDS011;36308;46.312;25.288;2023-09-07T01:14:53;6.55;;;3.47;;
50393;SDS011;36308;46.312;25.288;2023-09-07T01:17:19;6.60;;;3.40;;
50393;SDS011;36308;46.312;25.288;2023-09-07T01:19:46;6.32;;;3.45;;
50393;SDS011;36308;46.312;25.288;2023-09-07T01:22:15;4.85;;;3.30;;
50393;SDS011;36308;46.312;25.288;2023-09-07T01:24:45;4.95;;;3.45;;
50393;SDS011;36308;46.312;25.288;2023-09-07T01:27:12;5.47;;;3.10;;
50393;SDS011;36308;46.312;25.288;2023-09-07T01:29:38;4.43;;;3.25;;
50393;SDS011;36308;46.312;25.288;2023-09-07T01:32:05;7.45;;;3.90;;
50393;SDS011;36308;46.312;25.288;2023-09-07T01:34:31;7.28;;;3.65;;
50393;SDS011;36308;46.312;25.288;2023-09-07T01:36:57;6.82;;;3.42;;
50393;SDS011;36308;46.312;25.288;2023-09-07T01:39:22;6.60;;;3.42;;
50393;SDS011;36308;46.312;25.288;2023-09-07T01:41:48;4.85;;;3.22;;
50393;SDS011;36308;46.312;25.288;2023-09-07T01:44:13;5.03;;;3.33;;
50393;SDS011;36308;46.312;25.288;2023-09-07T01:46:39;4.80;;;3.10;;
50393;SDS011;36308;46.312;25.288;2023-09-07T01:49:04;4.72;;;3.15;;
50393;SDS011;36308;46.312;25.288;2023-09-07T01:51:30;6.85;;;3.33;;
50393;SDS011;36308;46.312;25.288;2023-09-07T01:53:55;5.43;;;3.30;;
50393;SDS011;36308;46.312;25.288;2023-09-07T01:56:21;6.13;;;3.30;;
50393;SDS011;36308;46.312;25.288;2023-09-07T01:58:47;4.93;;;3.17;;
50393;SDS011;36308;46.312;25.288;2023-09-07T02:01:25;6.72;;;3.70;;
50393;SDS011;36308;46.312;25.288;2023-09-07T02:03:54;4.93;;;3.35;;
50393;SDS011;36308;46.312;25.288;2023-09-07T02:06:20;5.15;;;3.38;;
50393;SDS011;36308;46.312;25.288;2023-09-07T02:08:45;5.97;;;3.58;;
50393;SDS011;36308;46.312;25.288;2023-09-07T02:11:11;5.63;;;3.78;;
50393;SDS011;36308;46.312;25.288;2023-09-07T02:13:36;8.30;;;3.35;;
50393;SDS011;36308;46.312;25.288;2023-09-07T02:16:05;5.95;;;3.50;;
50393;SDS011;36308;46.312;25.288;2023-09-07T02:18:33;5.22;;;3.05;;
50393;SDS011;36308;46.312;25.288;2023-09-07T02:21:03;6.00;;;3.88;;
50393;SDS011;36308;46.312;25.288;2023-09-07T02:23:32;5.80;;;3.80;;
50393;SDS011;36308;46.312;25.288;2023-09-07T02:25:58;4.97;;;3.38;;
50393;SDS011;36308;46.312;25.288;2023-09-07T02:28:24;6.53;;;3.72;;
50393;SDS011;36308;46.312;25.288;2023-09-07T02:30:51;5.05;;;3.53;;
50393;SDS011;36308;46.312;25.288;2023-09-07T02:33:17;5.95;;;4.40;;
50393;SDS011;36308;46.312;25.288;2023-09-07T02:35:42;5.85;;;3.53;;
50393;SDS011;36308;46.312;25.288;2023-09-07T02:38:08;5.70;;;3.20;;
50393;SDS011;36308;46.312;25.288;2023-09-07T02:40:40;5.35;;;3.08;;
50393;SDS011;36308;46.312;25.288;2023-09-07T03:06:42;9.60;;;5.30;;
50393;SDS011;36308;46.312;25.288;2023-09-07T03:09:07;31.23;;;28.27;;
50393;SDS011;36308;46.312;25.288;2023-09-07T03:11:34;8.25;;;6.45;;
50393;SDS011;36308;46.312;25.288;2023-09-07T03:14:00;10.43;;;7.75;;
50393;SDS011;36308;46.312;25.288;2023-09-07T03:16:26;26.77;;;14.05;;
50393;SDS011;36308;46.312;25.288;2023-09-07T03:18:51;21.27;;;12.82;;
50393;SDS011;36308;46.312;25.288;2023-09-07T03:21:17;12.07;;;7.60;;
50393;SDS011;36308;46.312;25.288;2023-09-07T03:23:42;12.45;;;7.10;;
50393;SDS011;36308;46.312;25.288;2023-09-07T03:26:10;7.38;;;4.72;;
50393;SDS011;36308;46.312;25.288;2023-09-07T03:28:35;6.30;;;4.25;;
50393;SDS011;36308;46.312;25.288;2023-09-07T03:31:01;5.93;;;4.10;;
50393;SDS011;36308;46.312;25.288;2023-09-07T03:33:27;6.13;;;3.88;;
50393;SDS011;36308;46.312;25.288;2023-09-07T03:35:52;8.15;;;4.10;;
50393;SDS011;36308;46.312;25.288;2023-09-07T03:38:18;8.23;;;4.82;;
50393;SDS011;36308;46.312;25.288;2023-09-07T03:40:43;8.80;;;5.30;;
50393;SDS011;36308;46.312;25.288;2023-09-07T03:43:09;7.97;;;4.03;;
50393;SDS011;36308;46.312;25.288;2023-09-07T03:45:35;9.73;;;4.47;;
50393;SDS011;36308;46.312;25.288;2023-09-07T03:48:00;7.43;;;4.10;;
50393;SDS011;36308;46.312;25.288;2023-09-07T03:50:26;7.18;;;3.88;;
50393;SDS011;36308;46.312;25.288;2023-09-07T03:52:51;6.13;;;3.90;;
50393;SDS011;36308;46.312;25.288;2023-09-07T03:55:17;7.68;;;4.15;;
50393;SDS011;36308;46.312;25.288;2023-09-07T03:57:42;7.15;;;4.03;;
50393;SDS011;36308;46.312;25.288;2023-09-07T04:00:09;7.85;;;4.20;;
50393;SDS011;36308;46.312;25.288;2023-09-07T04:02:35;8.90;;;4.32;;
50393;SDS011;36308;46.312;25.288;2023-09-07T04:05:00;6.57;;;3.72;;
50393;SDS011;36308;46.312;25.288;2023-09-07T04:07:29;7.78;;;3.95;;
50393;SDS011;36308;46.312;25.288;2023-09-07T04:09:55;6.30;;;3.50;;
50393;SDS011;36308;46.312;25.288;2023-09-07T04:12:21;8.15;;;3.95;;
50393;SDS011;36308;46.312;25.288;2023-09-07T04:14:47;7.43;;;3.80;;
50393;SDS011;36308;46.312;25.288;2023-09-07T04:17:12;7.30;;;3.88;;
50393;SDS011;36308;46.312;25.288;2023-09-07T04:19:38;7.00;;;3.83;;
50393;SDS011;36308;46.312;25.288;2023-09-07T04:22:03;6.20;;;4.18;;
50393;SDS011;36308;46.312;25.288;2023-09-07T04:24:29;7.35;;;4.20;;
50393;SDS011;36308;46.312;25.288;2023-09-07T04:26:58;7.50;;;3.95;;
50393;SDS011;36308;46.312;25.288;2023-09-07T04:29:25;7.25;;;4.15;;
50393;SDS011;36308;46.312;25.288;2023-09-07T04:31:51;6.63;;;4.55;;
50393;SDS011;36308;46.312;25.288;2023-09-07T04:34:17;7.07;;;4.25;;
50393;SDS011;36308;46.312;25.288;2023-09-07T04:36:42;5.78;;;3.70;;
50393;SDS011;36308;46.312;25.288;2023-09-07T04:39:08;10.35;;;4.35;;
50393;SDS011;36308;46.312;25.288;2023-09-07T04:41:33;7.93;;;4.50;;
50393;SDS011;36308;46.312;25.288;2023-09-07T04:43:59;8.43;;;3.97;;
50393;SDS011;36308;46.312;25.288;2023-09-07T04:46:24;9.70;;;5.32;;
50393;SDS011;36308;46.312;25.288;2023-09-07T04:48:50;9.00;;;5.22;;
50393;SDS011;36308;46.312;25.288;2023-09-07T04:51:15;7.13;;;4.55;;
50393;SDS011;36308;46.312;25.288;2023-09-07T04:53:41;6.43;;;4.18;;
50393;SDS011;36308;46.312;25.288;2023-09-07T04:56:07;9.10;;;4.55;;
50393;SDS011;36308;46.312;25.288;2023-09-07T04:58:33;10.65;;;4.38;;
50393;SDS011;36308;46.312;25.288;2023-09-07T05:01:05;8.98;;;4.40;;
50393;SDS011;36308;46.312;25.288;2023-09-07T05:03:32;8.68;;;4.53;;
50393;SDS011;36308;46.312;25.288;2023-09-07T05:05:59;9.05;;;4.57;;
50393;SDS011;36308;46.312;25.288;2023-09-07T05:08:25;8.63;;;4.40;;
50393;SDS011;36308;46.312;25.288;2023-09-07T05:10:57;10.38;;;5.53;;
50393;SDS011;36308;46.312;25.288;2023-09-07T05:13:27;7.07;;;4.38;;
50393;SDS011;36308;46.312;25.288;2023-09-07T05:15:54;10.98;;;4.63;;
50393;SDS011;36308;46.312;25.288;2023-09-07T05:18:20;9.15;;;4.65;;
50393;SDS011;36308;46.312;25.288;2023-09-07T05:20:46;10.43;;;4.90;;
50393;SDS011;36308;46.312;25.288;2023-09-07T05:23:17;9.95;;;4.43;;
50393;SDS011;36308;46.312;25.288;2023-09-07T05:25:53;9.93;;;5.05;;
50393;SDS011;36308;46.312;25.288;2023-09-07T05:28:20;12.00;;;5.35;;
50393;SDS011;36308;46.312;25.288;2023-09-07T05:30:46;8.27;;;4.47;;
50393;SDS011;36308;46.312;25.288;2023-09-07T05:33:13;7.13;;;4.75;;
50393;SDS011;36308;46.312;25.288;2023-09-07T05:35:40;8.88;;;4.78;;
50393;SDS011;36308;46.312;25.288;2023-09-07T05:38:07;9.68;;;5.22;;
50393;SDS011;36308;46.312;25.288;2023-09-07T05:40:33;11.70;;;5.38;;
50393;SDS011;36308;46.312;25.288;2023-09-07T05:43:00;8.48;;;5.20;;
50393;SDS011;36308;46.312;25.288;2023-09-07T05:45:25;8.95;;;5.80;;
50393;SDS011;36308;46.312;25.288;2023-09-07T05:47:51;9.15;;;5.22;;
50393;SDS011;36308;46.312;25.288;2023-09-07T05:50:16;9.55;;;5.68;;
50393;SDS011;36308;46.312;25.288;2023-09-07T05:52:42;9.48;;;5.65;;
50393;SDS011;36308;46.312;25.288;2023-09-07T05:55:07;8.48;;;5.10;;
50393;SDS011;36308;46.312;25.288;2023-09-07T05:57:33;12.82;;;6.97;;
50393;SDS011;36308;46.312;25.288;2023-09-07T05:59:58;14.40;;;5.57;;
50393;SDS011;36308;46.312;25.288;2023-09-07T06:02:24;11.43;;;5.78;;
50393;SDS011;36308;46.312;25.288;2023-09-07T06:04:49;14.80;;;5.97;;
50393;SDS011;36308;46.312;25.288;2023-09-07T06:07:15;10.90;;;5.72;;
50393;SDS011;36308;46.312;25.288;2023-09-07T06:09:40;15.13;;;5.22;;
50393;SDS011;36308;46.312;25.288;2023-09-07T06:12:06;15.38;;;6.13;;
50393;SDS011;36308;46.312;25.288;2023-09-07T06:14:32;12.20;;;6.18;;
50393;SDS011;36308;46.312;25.288;2023-09-07T06:16:57;11.85;;;5.75;;
50393;SDS011;36308;46.312;25.288;2023-09-07T06:19:22;12.93;;;5.55;;
50393;SDS011;36308;46.312;25.288;2023-09-07T06:21:48;11.35;;;6.03;;
50393;SDS011;36308;46.312;25.288;2023-09-07T06:24:14;11.50;;;6.10;;
50393;SDS011;36308;46.312;25.288;2023-09-07T06:26:39;11.70;;;5.90;;
50393;SDS011;36308;46.312;25.288;2023-09-07T06:29:05;13.07;;;6.88;;
50393;SDS011;36308;46.312;25.288;2023-09-07T06:31:30;15.30;;;6.10;;
50393;SDS011;36308;46.312;25.288;2023-09-07T06:33:56;13.45;;;6.65;;
50393;SDS011;36308;46.312;25.288;2023-09-07T06:36:21;13.95;;;5.90;;
50393;SDS011;36308;46.312;25.288;2023-09-07T06:38:47;15.95;;;6.28;;
50393;SDS011;36308;46.312;25.288;2023-09-07T06:41:13;12.13;;;5.70;;
50393;SDS011;36308;46.312;25.288;2023-09-07T06:43:39;12.70;;;6.00;;
50393;SDS011;36308;46.312;25.288;2023-09-07T06:46:08;12.40;;;6.18;;
50393;SDS011;36308;46.312;25.288;2023-09-07T06:48:34;12.80;;;6.30;;
50393;SDS011;36308;46.312;25.288;2023-09-07T06:51:01;13.45;;;6.40;;
50393;SDS011;36308;46.312;25.288;2023-09-07T06:53:30;10.30;;;6.60;;
50393;SDS011;36308;46.312;25.288;2023-09-07T06:55:57;12.10;;;6.30;;
50393;SDS011;36308;46.312;25.288;2023-09-07T06:58:25;16.88;;;6.72;;
50393;SDS011;36308;46.312;25.288;2023-09-07T07:00:51;15.90;;;6.45;;
50393;SDS011;36308;46.312;25.288;2023-09-07T07:03:17;10.95;;;5.57;;
50393;SDS011;36308;46.312;25.288;2023-09-07T07:05:43;12.25;;;5.70;;
50393;SDS011;36308;46.312;25.288;2023-09-07T07:08:09;9.82;;;5.50;;
50393;SDS011;36308;46.312;25.288;2023-09-07T07:10:35;11.07;;;5.70;;
50393;SDS011;36308;46.312;25.288;2023-09-07T07:13:00;9.68;;;5.90;;
50393;SDS011;36308;46.312;25.288;2023-09-07T07:15:26;14.05;;;5.78;;
50393;SDS011;36308;46.312;25.288;2023-09-07T07:17:51;9.45;;;5.18;;
50393;SDS011;36308;46.312;25.288;2023-09-07T07:20:17;10.95;;;4.63;;
50393;SDS011;36308;46.312;25.288;2023-09-07T07:22:42;7.32;;;4.55;;
50393;SDS011;36308;46.312;25.288;2023-09-07T07:25:08;8.95;;;5.18;;
50393;SDS011;36308;46.312;25.288;2023-09-07T07:27:33;11.73;;;5.53;;
50393;SDS011;36308;46.312;25.288;2023-09-07T07:29:59;10.88;;;5.10;;
50393;SDS011;36308;46.312;25.288;2023-09-07T07:32:25;8.35;;;5.22;;
50393;SDS011;36308;46.312;25.288;2023-09-07T07:34:51;8.55;;;5.28;;
50393;SDS011;36308;46.312;25.288;2023-09-07T07:37:16;11.85;;;5.15;;
50393;SDS011;36308;46.312;25.288;2023-09-07T07:39:43;8.73;;;4.68;;
50393;SDS011;36308;46.312;25.288;2023-09-07T07:42:08;9.55;;;5.10;;
50393;SDS011;36308;46.312;25.288;2023-09-07T07:44:34;7.32;;;4.00;;
50393;SDS011;36308;46.312;25.288;2023-09-07T07:46:59;8.30;;;4.40;;
50393;SDS011;36308;46.312;25.288;2023-09-07T07:49:25;7.22;;;4.68;;
50393;SDS011;36308;46.312;25.288;2023-09-07T07:51:52;8.77;;;4.50;;
50393;SDS011;36308;46.312;25.288;2023-09-07T07:54:20;7.47;;;4.40;;
50393;SDS011;36308;46.312;25.288;2023-09-07T07:56:47;6.15;;;4.53;;
50393;SDS011;36308;46.312;25.288;2023-09-07T07:59:13;6.78;;;4.22;;
50393;SDS011;36308;46.312;25.288;2023-09-07T08:01:39;12.63;;;4.53;;
50393;SDS011;36308;46.312;25.288;2023-09-07T08:04:05;7.05;;;3.80;;
50393;SDS011;36308;46.312;25.288;2023-09-07T08:06:31;7.43;;;4.03;;
50393;SDS011;36308;46.312;25.288;2023-09-07T08:08:56;8.02;;;3.65;;
50393;SDS011;36308;46.312;25.288;2023-09-07T08:11:22;7.03;;;4.00;;
50393;SDS011;36308;46.312;25.288;2023-09-07T08:13:49;6.93;;;4.30;;
50393;SDS011;36308;46.312;25.288;2023-09-07T08:16:15;10.02;;;4.70;;
50393;SDS011;36308;46.312;25.288;2023-09-07T08:18:40;6.90;;;4.43;;
50393;SDS011;36308;46.312;25.288;2023-09-07T08:21:06;6.50;;;4.30;;
50393;SDS011;36308;46.312;25.288;2023-09-07T08:23:31;6.32;;;3.85;;
50393;SDS011;36308;46.312;25.288;2023-09-07T08:25:57;6.15;;;3.55;;
50393;SDS011;36308;46.312;25.288;2023-09-07T08:28:23;8.32;;;4.10;;
50393;SDS011;36308;46.312;25.288;2023-09-07T08:30:50;5.55;;;3.58;;
50393;SDS011;36308;46.312;25.288;2023-09-07T08:33:19;8.60;;;3.70;;
50393;SDS011;36308;46.312;25.288;2023-09-07T08:35:51;8.43;;;3.85;;
50393;SDS011;36308;46.312;25.288;2023-09-07T08:38:18;8.98;;;4.28;;
50393;SDS011;36308;46.312;25.288;2023-09-07T08:40:47;6.47;;;3.83;;
50393;SDS011;36308;46.312;25.288;2023-09-07T08:43:14;4.93;;;3.28;;
50393;SDS011;36308;46.312;25.288;2023-09-07T08:45:41;5.68;;;3.75;;
50393;SDS011;36308;46.312;25.288;2023-09-07T08:48:14;6.50;;;4.22;;
50393;SDS011;36308;46.312;25.288;2023-09-07T08:50:42;6.93;;;4.15;;
50393;SDS011;36308;46.312;25.288;2023-09-07T08:53:14;6.65;;;3.97;;
50393;SDS011;36308;46.312;25.288;2023-09-07T08:55:45;5.80;;;3.45;;
50393;SDS011;36308;46.312;25.288;2023-09-07T08:58:11;6.43;;;3.95;;
50393;SDS011;36308;46.312;25.288;2023-09-07T09:00:37;6.90;;;3.78;;
50393;SDS011;36308;46.312;25.288;2023-09-07T09:03:03;7.10;;;3.55;;
50393;SDS011;36308;46.312;25.288;2023-09-07T09:05:29;5.80;;;4.05;;
50393;SDS011;36308;46.312;25.288;2023-09-07T09:08:02;6.50;;;3.55;;
50393;SDS011;36308;46.312;25.288;2023-09-07T09:12:54;6.07;;;3.70;;
50393;SDS011;36308;46.312;25.288;2023-09-07T09:15:21;6.32;;;3.70;;
50393;SDS011;36308;46.312;25.288;2023-09-07T09:17:47;6.97;;;4.25;;
50393;SDS011;36308;46.312;25.288;2023-09-07T09:20:22;5.65;;;4.10;;
50393;SDS011;36308;46.312;25.288;2023-09-07T09:22:53;5.20;;;3.55;;
50393;SDS011;36308;46.312;25.288;2023-09-07T09:25:19;6.72;;;4.15;;
50393;SDS011;36308;46.312;25.288;2023-09-07T09:27:46;5.95;;;3.63;;
50393;SDS011;36308;46.312;25.288;2023-09-07T09:30:12;4.65;;;3.53;;
50393;SDS011;36308;46.312;25.288;2023-09-07T09:32:41;6.95;;;4.10;;
50393;SDS011;36308;46.312;25.288;2023-09-07T09:35:07;5.63;;;3.67;;
50393;SDS011;36308;46.312;25.288;2023-09-07T09:37:34;5.72;;;3.30;;
50393;SDS011;36308;46.312;25.288;2023-09-07T09:40:11;6.20;;;4.00;;
50393;SDS011;36308;46.312;25.288;2023-09-07T09:42:37;5.53;;;3.90;;
50393;SDS011;36308;46.312;25.288;2023-09-07T09:45:04;7.82;;;4.18;;
50393;SDS011;36308;46.312;25.288;2023-09-07T09:47:31;6.10;;;3.95;;
50393;SDS011;36308;46.312;25.288;2023-09-07T09:49:58;4.93;;;3.70;;
50393;SDS011;36308;46.312;25.288;2023-09-07T09:52:27;4.78;;;3.53;;
50393;SDS011;36308;46.312;25.288;2023-09-07T09:54:54;5.00;;;3.50;;
50393;SDS011;36308;46.312;25.288;2023-09-07T09:57:21;5.20;;;3.40;;
50393;SDS011;36308;46.312;25.288;2023-09-07T09:59:47;6.00;;;3.70;;
50393;SDS011;36308;46.312;25.288;2023-09-07T10:02:13;5.70;;;3.55;;
50393;SDS011;36308;46.312;25.288;2023-09-07T10:04:41;5.35;;;3.83;;
50393;SDS011;36308;46.312;25.288;2023-09-07T10:07:06;5.35;;;3.95;;
50393;SDS011;36308;46.312;25.288;2023-09-07T10:09:32;5.05;;;3.17;;
50393;SDS011;36308;46.312;25.288;2023-09-07T10:11:58;5.30;;;4.20;;
50393;SDS011;36308;46.312;25.288;2023-09-07T10:14:25;5.55;;;3.65;;
50393;SDS011;36308;46.312;25.288;2023-09-07T10:16:51;6.07;;;3.63;;
50393;SDS011;36308;46.312;25.288;2023-09-07T10:19:23;6.38;;;3.88;;
50393;SDS011;36308;46.312;25.288;2023-09-07T10:21:52;5.47;;;3.90;;
50393;SDS011;36308;46.312;25.288;2023-09-07T10:26:59;6.15;;;3.80;;
50393;SDS011;36308;46.312;25.288;2023-09-07T10:29:26;5.05;;;3.70;;
50393;SDS011;36308;46.312;25.288;2023-09-07T10:31:52;4.80;;;4.00;;
50393;SDS011;36308;46.312;25.288;2023-09-07T10:34:18;8.15;;;3.70;;
50393;SDS011;36308;46.312;25.288;2023-09-07T10:36:44;5.55;;;4.13;;
50393;SDS011;36308;46.312;25.288;2023-09-07T10:39:11;8.27;;;3.53;;
50393;SDS011;36308;46.312;25.288;2023-09-07T10:41:43;6.38;;;3.75;;
50393;SDS011;36308;46.312;25.288;2023-09-07T10:44:10;4.72;;;3.60;;
50393;SDS011;36308;46.312;25.288;2023-09-07T10:46:37;5.53;;;3.40;;
50393;SDS011;36308;46.312;25.288;2023-09-07T10:49:05;5.50;;;3.83;;
50393;SDS011;36308;46.312;25.288;2023-09-07T10:51:39;7.13;;;3.70;;
50393;SDS011;36308;46.312;25.288;2023-09-07T10:54:21;6.18;;;3.72;;
50393;SDS011;36308;46.312;25.288;2023-09-07T10:56:48;4.40;;;3.75;;
50393;SDS011;36308;46.312;25.288;2023-09-07T10:59:15;4.65;;;3.58;;
50393;SDS011;36308;46.312;25.288;2023-09-07T11:01:45;6.97;;;4.20;;
50393;SDS011;36308;46.312;25.288;2023-09-07T11:04:11;6.68;;;4.10;;
50393;SDS011;36308;46.312;25.288;2023-09-07T11:06:37;5.70;;;3.80;;
50393;SDS011;36308;46.312;25.288;2023-09-07T11:09:04;8.02;;;4.10;;
50393;SDS011;36308;46.312;25.288;2023-09-07T11:11:34;6.80;;;3.90;;
50393;SDS011;36308;46.312;25.288;2023-09-07T11:13:59;7.07;;;5.68;;
50393;SDS011;36308;46.312;25.288;2023-09-07T11:16:28;5.43;;;4.35;;
50393;SDS011;36308;46.312;25.288;2023-09-07T11:18:54;7.88;;;4.53;;
50393;SDS011;36308;46.312;25.288;2023-09-07T11:21:20;5.85;;;3.88;;
50393;SDS011;36308;46.312;25.288;2023-09-07T11:23:46;5.55;;;3.90;;
50393;SDS011;36308;46.312;25.288;2023-09-07T11:26:13;5.88;;;3.67;;
50393;SDS011;36308;46.312;25.288;2023-09-07T11:28:44;5.30;;;3.50;;
50393;SDS011;36308;46.312;25.288;2023-09-07T11:31:10;4.28;;;3.60;;
50393;SDS011;36308;46.312;25.288;2023-09-07T11:33:36;6.43;;;3.63;;
50393;SDS011;36308;46.312;25.288;2023-09-07T11:36:02;4.63;;;3.60;;
50393;SDS011;36308;46.312;25.288;2023-09-07T11:38:28;4.50;;;3.40;;
50393;SDS011;36308;46.312;25.288;2023-09-07T11:41:00;5.13;;;4.00;;
50393;SDS011;36308;46.312;25.288;2023-09-07T11:43:25;5.60;;;3.53;;
50393;SDS011;36308;46.312;25.288;2023-09-07T11:45:51;4.28;;;3.70;;
50393;SDS011;36308;46.312;25.288;2023-09-07T11:48:16;6.88;;;3.92;;
50393;SDS011;36308;46.312;25.288;2023-09-07T11:50:42;4.28;;;3.70;;
50393;SDS011;36308;46.312;25.288;2023-09-07T11:53:08;5.00;;;3.92;;
50393;SDS011;36308;46.312;25.288;2023-09-07T11:55:34;7.72;;;3.72;;
50393;SDS011;36308;46.312;25.288;2023-09-07T11:58:03;4.65;;;3.83;;
50393;SDS011;36308;46.312;25.288;2023-09-07T12:00:32;5.20;;;3.85;;
50393;SDS011;36308;46.312;25.288;2023-09-07T12:02:58;5.90;;;4.47;;
50393;SDS011;36308;46.312;25.288;2023-09-07T12:05:24;6.15;;;3.78;;
50393;SDS011;36308;46.312;25.288;2023-09-07T12:07:50;5.90;;;3.80;;
50393;SDS011;36308;46.312;25.288;2023-09-07T12:10:15;5.93;;;4.18;;
50393;SDS011;36308;46.312;25.288;2023-09-07T12:12:42;6.60;;;3.88;;
50393;SDS011;36308;46.312;25.288;2023-09-07T12:15:09;5.63;;;3.67;;
50393;SDS011;36308;46.312;25.288;2023-09-07T12:17:36;6.32;;;3.85;;
50393;SDS011;36308;46.312;25.288;2023-09-07T12:20:02;7.38;;;3.60;;
50393;SDS011;36308;46.312;25.288;2023-09-07T12:22:29;5.50;;;3.83;;
50393;SDS011;36308;46.312;25.288;2023-09-07T12:24:55;6.90;;;3.88;;
50393;SDS011;36308;46.312;25.288;2023-09-07T12:27:20;5.50;;;3.75;;
50393;SDS011;36308;46.312;25.288;2023-09-07T12:29:46;6.63;;;3.75;;
50393;SDS011;36308;46.312;25.288;2023-09-07T12:32:12;5.53;;;3.70;;
50393;SDS011;36308;46.312;25.288;2023-09-07T12:34:37;5.60;;;3.90;;
50393;SDS011;36308;46.312;25.288;2023-09-07T12:37:04;4.72;;;3.70;;
50393;SDS011;36308;46.312;25.288;2023-09-07T12:39:29;6.10;;;4.00;;
50393;SDS011;36308;46.312;25.288;2023-09-07T12:41:55;5.15;;;3.85;;
50393;SDS011;36308;46.312;25.288;2023-09-07T12:44:20;4.53;;;3.45;;
50393;SDS011;36308;46.312;25.288;2023-09-07T12:46:46;6.88;;;3.83;;
50393;SDS011;36308;46.312;25.288;2023-09-07T12:49:12;5.13;;;3.80;;
50393;SDS011;36308;46.312;25.288;2023-09-07T12:51:40;4.50;;;3.53;;
50393;SDS011;36308;46.312;25.288;2023-09-07T12:54:05;5.78;;;3.95;;
50393;SDS011;36308;46.312;25.288;2023-09-07T12:56:31;6.05;;;4.00;;
50393;SDS011;36308;46.312;25.288;2023-09-07T12:58:56;6.00;;;3.90;;
50393;SDS011;36308;46.312;25.288;2023-09-07T13:01:24;8.05;;;3.90;;
50393;SDS011;36308;46.312;25.288;2023-09-07T13:03:50;5.20;;;3.33;;
50393;SDS011;36308;46.312;25.288;2023-09-07T13:06:15;5.75;;;4.00;;
50393;SDS011;36308;46.312;25.288;2023-09-07T13:08:42;6.47;;;3.60;;
50393;SDS011;36308;46.312;25.288;2023-09-07T13:11:08;6.85;;;4.50;;
50393;SDS011;36308;46.312;25.288;2023-09-07T13:13:34;6.07;;;3.80;;
50393;SDS011;36308;46.312;25.288;2023-09-07T13:15:59;5.30;;;3.72;;
50393;SDS011;36308;46.312;25.288;2023-09-07T13:18:26;4.45;;;4.05;;
50393;SDS011;36308;46.312;25.288;2023-09-07T13:20:51;7.28;;;3.78;;
50393;SDS011;36308;46.312;25.288;2023-09-07T13:23:19;4.93;;;3.45;;
50393;SDS011;36308;46.312;25.288;2023-09-07T13:25:45;9.20;;;4.03;;
50393;SDS011;36308;46.312;25.288;2023-09-07T13:28:11;5.07;;;3.90;;
50393;SDS011;36308;46.312;25.288;2023-09-07T13:30:36;6.78;;;3.78;;
50393;SDS011;36308;46.312;25.288;2023-09-07T13:33:02;5.30;;;3.50;;
50393;SDS011;36308;46.312;25.288;2023-09-07T13:35:27;4.78;;;3.72;;
50393;SDS011;36308;46.312;25.288;2023-09-07T13:37:53;4.32;;;3.67;;
50393;SDS011;36308;46.312;25.288;2023-09-07T13:40:18;4.63;;;3.78;;
50393;SDS011;36308;46.312;25.288;2023-09-07T13:42:48;7.05;;;4.45;;
50393;SDS011;36308;46.312;25.288;2023-09-07T13:45:13;4.72;;;3.47;;
50393;SDS011;36308;46.312;25.288;2023-09-07T13:47:39;4.72;;;3.97;;
50393;SDS011;36308;46.312;25.288;2023-09-07T13:50:04;6.47;;;3.97;;
50393;SDS011;36308;46.312;25.288;2023-09-07T13:52:30;5.22;;;3.67;;
50393;SDS011;36308;46.312;25.288;2023-09-07T13:54:56;6.80;;;4.18;;
50393;SDS011;36308;46.312;25.288;2023-09-07T13:57:21;9.35;;;4.90;;
50393;SDS011;36308;46.312;25.288;2023-09-07T13:59:47;6.13;;;4.00;;
50393;SDS011;36308;46.312;25.288;2023-09-07T14:02:12;5.53;;;4.07;;
50393;SDS011;36308;46.312;25.288;2023-09-07T14:04:38;6.60;;;4.07;;
50393;SDS011;36308;46.312;25.288;2023-09-07T14:07:03;6.43;;;3.60;;
50393;SDS011;36308;46.312;25.288;2023-09-07T14:09:29;4.68;;;3.30;;
50393;SDS011;36308;46.312;25.288;2023-09-07T14:11:54;6.72;;;3.63;;
50393;SDS011;36308;46.312;25.288;2023-09-07T14:14:20;6.18;;;3.90;;
50393;SDS011;36308;46.312;25.288;2023-09-07T14:16:46;5.60;;;3.70;;
50393;SDS011;36308;46.312;25.288;2023-09-07T14:19:11;5.20;;;3.55;;
50393;SDS011;36308;46.312;25.288;2023-09-07T14:21:37;5.68;;;3.75;;
50393;SDS011;36308;46.312;25.288;2023-09-07T14:24:03;7.47;;;3.78;;
50393;SDS011;36308;46.312;25.288;2023-09-07T14:26:29;6.18;;;4.00;;
50393;SDS011;36308;46.312;25.288;2023-09-07T14:28:54;5.07;;;3.97;;
50393;SDS011;36308;46.312;25.288;2023-09-07T14:31:20;4.75;;;3.58;;
50393;SDS011;36308;46.312;25.288;2023-09-07T14:33:45;8.77;;;4.53;;
50393;SDS011;36308;46.312;25.288;2023-09-07T14:36:11;6.15;;;4.20;;
50393;SDS011;36308;46.312;25.288;2023-09-07T14:38:37;8.27;;;3.97;;
50393;SDS011;36308;46.312;25.288;2023-09-07T14:41:10;5.65;;;3.80;;
50393;SDS011;36308;46.312;25.288;2023-09-07T14:43:46;7.38;;;3.97;;
50393;SDS011;36308;46.312;25.288;2023-09-07T14:46:13;7.93;;;4.40;;
50393;SDS011;36308;46.312;25.288;2023-09-07T14:48:39;6.60;;;4.03;;
50393;SDS011;36308;46.312;25.288;2023-09-07T14:51:05;7.18;;;4.10;;
50393;SDS011;36308;46.312;25.288;2023-09-07T14:53:30;9.48;;;4.38;;
50393;SDS011;36308;46.312;25.288;2023-09-07T14:55:56;6.18;;;3.83;;
50393;SDS011;36308;46.312;25.288;2023-09-07T14:58:22;8.30;;;3.30;;